sensor_id;sensor_type;location;lat;lon;timestamp;P1;durP1;ratioP1;P2;durP2;ratioP2
70320;SDS011;61127;55.826;37.046;2022-07-24T00:00:07;16.48;;;9.02;;
70320;SDS011;61127;55.826;37.046;2022-07-24T00:02:41;15.70;;;8.50;;
70320;SDS011;61127;55.826;37.046;2022-07-24T00:05:07;15.52;;;9.23;;
70320;SDS011;61127;55.826;37.046;2022-07-24T00:07:34;16.20;;;9.60;;
70320;SDS011;61127;55.826;37.046;2022-07-24T00:10:01;14.27;;;9.13;;
70320;SDS011;61127;55.826;37.046;2022-07-24T00:12:29;15.75;;;9.32;;
70320;SDS011;61127;55.826;37.046;2022-07-24T00:14:55;18.77;;;10.00;;
70320;SDS011;61127;55.826;37.046;2022-07-24T00:17:21;14.38;;;9.30;;
70320;SDS011;61127;55.826;37.046;2022-07-24T00:19:47;15.68;;;8.95;;
70320;SDS011;61127;55.826;37.046;2022-07-24T00:22:22;17.45;;;9.50;;
70320;SDS011;61127;55.826;37.046;2022-07-24T00:24:51;11.93;;;8.87;;
70320;SDS011;61127;55.826;37.046;2022-07-24T00:27:17;14.15;;;8.60;;
70320;SDS011;61127;55.826;37.046;2022-07-24T00:29:43;14.02;;;8.80;;
70320;SDS011;61127;55.826;37.046;2022-07-24T00:32:16;16.25;;;8.73;;
70320;SDS011;61127;55.826;37.046;2022-07-24T00:34:42;13.63;;;8.23;;
70320;SDS011;61127;55.826;37.046;2022-07-24T00:37:08;14.30;;;8.63;;
70320;SDS011;61127;55.826;37.046;2022-07-24T00:39:34;12.20;;;8.40;;
70320;SDS011;61127;55.826;37.046;2022-07-24T00:42:00;12.63;;;8.45;;
70320;SDS011;61127;55.826;37.046;2022-07-24T00:44:27;14.17;;;8.03;;
70320;SDS011;61127;55.826;37.046;2022-07-24T00:46:52;17.85;;;9.00;;
70320;SDS011;61127;55.826;37.046;2022-07-24T00:49:19;13.73;;;8.70;;
70320;SDS011;61127;55.826;37.046;2022-07-24T00:51:47;12.65;;;8.20;;
70320;SDS011;61127;55.826;37.046;2022-07-24T00:54:14;16.37;;;8.70;;
70320;SDS011;61127;55.826;37.046;2022-07-24T00:56:42;14.32;;;8.45;;
70320;SDS011;61127;55.826;37.046;2022-07-24T00:59:10;17.40;;;8.57;;
70320;SDS011;61127;55.826;37.046;2022-07-24T01:01:36;14.60;;;8.43;;
70320;SDS011;61127;55.826;37.046;2022-07-24T01:04:04;15.35;;;9.25;;
70320;SDS011;61127;55.826;37.046;2022-07-24T01:06:30;14.33;;;8.83;;
70320;SDS011;61127;55.826;37.046;2022-07-24T01:08:56;13.82;;;8.38;;
70320;SDS011;61127;55.826;37.046;2022-07-24T01:11:22;14.55;;;8.40;;
70320;SDS011;61127;55.826;37.046;2022-07-24T01:13:49;11.85;;;8.27;;
70320;SDS011;61127;55.826;37.046;2022-07-24T01:16:16;10.98;;;7.90;;
70320;SDS011;61127;55.826;37.046;2022-07-24T01:18:43;13.80;;;8.07;;
70320;SDS011;61127;55.826;37.046;2022-07-24T01:21:09;13.27;;;8.30;;
70320;SDS011;61127;55.826;37.046;2022-07-24T01:23:36;12.70;;;7.63;;
70320;SDS011;61127;55.826;37.046;2022-07-24T01:26:02;10.68;;;7.38;;
70320;SDS011;61127;55.826;37.046;2022-07-24T01:28:33;12.73;;;7.97;;
70320;SDS011;61127;55.826;37.046;2022-07-24T01:31:00;14.50;;;7.93;;
70320;SDS011;61127;55.826;37.046;2022-07-24T01:33:28;14.40;;;8.05;;
70320;SDS011;61127;55.826;37.046;2022-07-24T01:35:55;13.45;;;7.95;;
70320;SDS011;61127;55.826;37.046;2022-07-24T01:38:21;11.65;;;7.82;;
70320;SDS011;61127;55.826;37.046;2022-07-24T01:40:47;12.52;;;7.90;;
70320;SDS011;61127;55.826;37.046;2022-07-24T01:43:16;11.13;;;7.70;;
70320;SDS011;61127;55.826;37.046;2022-07-24T01:45:42;13.20;;;8.00;;
70320;SDS011;61127;55.826;37.046;2022-07-24T01:48:08;13.82;;;9.10;;
70320;SDS011;61127;55.826;37.046;2022-07-24T01:50:34;12.65;;;8.38;;
70320;SDS011;61127;55.826;37.046;2022-07-24T01:53:01;13.43;;;8.20;;
70320;SDS011;61127;55.826;37.046;2022-07-24T01:55:28;17.87;;;9.10;;
70320;SDS011;61127;55.826;37.046;2022-07-24T01:57:54;13.30;;;8.27;;
70320;SDS011;61127;55.826;37.046;2022-07-24T02:00:20;14.75;;;8.57;;
70320;SDS011;61127;55.826;37.046;2022-07-24T02:02:47;13.70;;;8.20;;
70320;SDS011;61127;55.826;37.046;2022-07-24T02:05:17;13.18;;;8.00;;
70320;SDS011;61127;55.826;37.046;2022-07-24T02:07:43;15.53;;;8.67;;
70320;SDS011;61127;55.826;37.046;2022-07-24T02:10:10;15.38;;;8.70;;
70320;SDS011;61127;55.826;37.046;2022-07-24T02:12:39;13.52;;;8.80;;
70320;SDS011;61127;55.826;37.046;2022-07-24T02:15:26;14.73;;;9.30;;
70320;SDS011;61127;55.826;37.046;2022-07-24T02:17:53;16.65;;;9.32;;
70320;SDS011;61127;55.826;37.046;2022-07-24T02:20:21;15.03;;;8.60;;
70320;SDS011;61127;55.826;37.046;2022-07-24T02:22:54;20.65;;;9.27;;
70320;SDS011;61127;55.826;37.046;2022-07-24T02:25:20;18.33;;;8.98;;
70320;SDS011;61127;55.826;37.046;2022-07-24T02:27:46;15.35;;;8.55;;
70320;SDS011;61127;55.826;37.046;2022-07-24T02:30:14;15.37;;;8.57;;
70320;SDS011;61127;55.826;37.046;2022-07-24T02:32:44;15.23;;;8.93;;
70320;SDS011;61127;55.826;37.046;2022-07-24T02:35:10;14.02;;;8.90;;
70320;SDS011;61127;55.826;37.046;2022-07-24T02:37:37;14.23;;;8.77;;
70320;SDS011;61127;55.826;37.046;2022-07-24T02:40:05;13.95;;;8.70;;
70320;SDS011;61127;55.826;37.046;2022-07-24T02:42:34;12.38;;;7.10;;
70320;SDS011;61127;55.826;37.046;2022-07-24T02:45:01;11.90;;;8.17;;
70320;SDS011;61127;55.826;37.046;2022-07-24T02:47:29;14.02;;;8.75;;
70320;SDS011;61127;55.826;37.046;2022-07-24T02:49:55;14.52;;;8.40;;
70320;SDS011;61127;55.826;37.046;2022-07-24T02:52:25;14.80;;;8.73;;
70320;SDS011;61127;55.826;37.046;2022-07-24T02:54:51;11.50;;;8.70;;
70320;SDS011;61127;55.826;37.046;2022-07-24T02:57:18;13.15;;;9.05;;
70320;SDS011;61127;55.826;37.046;2022-07-24T02:59:44;14.00;;;8.75;;
70320;SDS011;61127;55.826;37.046;2022-07-24T03:02:16;16.15;;;9.57;;
70320;SDS011;61127;55.826;37.046;2022-07-24T03:04:42;16.65;;;10.10;;
70320;SDS011;61127;55.826;37.046;2022-07-24T03:07:09;16.23;;;10.17;;
70320;SDS011;61127;55.826;37.046;2022-07-24T03:09:34;13.13;;;9.05;;
70320;SDS011;61127;55.826;37.046;2022-07-24T03:12:01;13.88;;;7.93;;
70320;SDS011;61127;55.826;37.046;2022-07-24T03:14:27;14.03;;;8.10;;
70320;SDS011;61127;55.826;37.046;2022-07-24T03:16:53;15.13;;;7.97;;
70320;SDS011;61127;55.826;37.046;2022-07-24T03:19:18;10.27;;;7.22;;
70320;SDS011;61127;55.826;37.046;2022-07-24T03:21:45;12.02;;;7.57;;
70320;SDS011;61127;55.826;37.046;2022-07-24T03:24:12;10.93;;;7.20;;
70320;SDS011;61127;55.826;37.046;2022-07-24T03:26:38;12.27;;;7.07;;
70320;SDS011;61127;55.826;37.046;2022-07-24T03:29:04;18.33;;;7.95;;
70320;SDS011;61127;55.826;37.046;2022-07-24T03:31:30;17.92;;;8.23;;
70320;SDS011;61127;55.826;37.046;2022-07-24T03:33:57;12.73;;;7.77;;
70320;SDS011;61127;55.826;37.046;2022-07-24T03:36:23;11.18;;;8.07;;
70320;SDS011;61127;55.826;37.046;2022-07-24T03:38:49;13.20;;;7.43;;
70320;SDS011;61127;55.826;37.046;2022-07-24T03:41:15;13.45;;;7.70;;
70320;SDS011;61127;55.826;37.046;2022-07-24T03:43:43;10.27;;;7.27;;
70320;SDS011;61127;55.826;37.046;2022-07-24T03:46:10;12.10;;;8.00;;
70320;SDS011;61127;55.826;37.046;2022-07-24T03:48:35;11.65;;;8.52;;
70320;SDS011;61127;55.826;37.046;2022-07-24T03:51:02;12.85;;;9.35;;
70320;SDS011;61127;55.826;37.046;2022-07-24T03:53:30;12.97;;;8.40;;
70320;SDS011;61127;55.826;37.046;2022-07-24T03:55:56;12.93;;;8.77;;
70320;SDS011;61127;55.826;37.046;2022-07-24T03:58:22;13.05;;;9.77;;
70320;SDS011;61127;55.826;37.046;2022-07-24T04:00:48;14.48;;;8.57;;
70320;SDS011;61127;55.826;37.046;2022-07-24T04:03:14;14.47;;;9.27;;
70320;SDS011;61127;55.826;37.046;2022-07-24T04:05:41;12.65;;;9.25;;
70320;SDS011;61127;55.826;37.046;2022-07-24T04:08:07;11.98;;;9.05;;
70320;SDS011;61127;55.826;37.046;2022-07-24T04:10:33;13.30;;;8.93;;
70320;SDS011;61127;55.826;37.046;2022-07-24T04:13:00;12.03;;;8.37;;
70320;SDS011;61127;55.826;37.046;2022-07-24T04:15:26;12.33;;;8.30;;
70320;SDS011;61127;55.826;37.046;2022-07-24T04:17:52;10.05;;;7.65;;
70320;SDS011;61127;55.826;37.046;2022-07-24T04:20:18;9.10;;;6.65;;
70320;SDS011;61127;55.826;37.046;2022-07-24T04:22:44;7.37;;;5.40;;
70320;SDS011;61127;55.826;37.046;2022-07-24T04:25:11;8.20;;;5.83;;
70320;SDS011;61127;55.826;37.046;2022-07-24T04:27:38;7.90;;;6.45;;
70320;SDS011;61127;55.826;37.046;2022-07-24T04:30:04;12.85;;;7.75;;
70320;SDS011;61127;55.826;37.046;2022-07-24T04:32:32;10.65;;;7.40;;
70320;SDS011;61127;55.826;37.046;2022-07-24T04:34:58;13.23;;;7.38;;
70320;SDS011;61127;55.826;37.046;2022-07-24T04:37:24;13.50;;;8.33;;
70320;SDS011;61127;55.826;37.046;2022-07-24T04:39:50;14.98;;;8.20;;
70320;SDS011;61127;55.826;37.046;2022-07-24T04:42:17;11.45;;;8.00;;
70320;SDS011;61127;55.826;37.046;2022-07-24T04:44:43;13.00;;;7.07;;
70320;SDS011;61127;55.826;37.046;2022-07-24T04:47:12;14.23;;;7.50;;
70320;SDS011;61127;55.826;37.046;2022-07-24T04:49:38;11.18;;;6.82;;
70320;SDS011;61127;55.826;37.046;2022-07-24T04:52:04;14.18;;;6.72;;
70320;SDS011;61127;55.826;37.046;2022-07-24T04:54:30;8.27;;;4.73;;
70320;SDS011;61127;55.826;37.046;2022-07-24T04:56:56;7.35;;;4.50;;
70320;SDS011;61127;55.826;37.046;2022-07-24T04:59:22;7.65;;;4.78;;
70320;SDS011;61127;55.826;37.046;2022-07-24T05:01:48;5.97;;;4.57;;
70320;SDS011;61127;55.826;37.046;2022-07-24T05:04:16;7.33;;;4.80;;
70320;SDS011;61127;55.826;37.046;2022-07-24T05:06:42;5.97;;;4.40;;
70320;SDS011;61127;55.826;37.046;2022-07-24T05:09:08;5.82;;;4.07;;
70320;SDS011;61127;55.826;37.046;2022-07-24T05:11:34;6.18;;;4.30;;
70320;SDS011;61127;55.826;37.046;2022-07-24T05:14:01;5.47;;;4.30;;
70320;SDS011;61127;55.826;37.046;2022-07-24T05:16:27;6.03;;;4.35;;
70320;SDS011;61127;55.826;37.046;2022-07-24T05:18:53;6.05;;;4.07;;
70320;SDS011;61127;55.826;37.046;2022-07-24T05:21:19;4.70;;;3.88;;
70320;SDS011;61127;55.826;37.046;2022-07-24T05:23:45;5.37;;;3.90;;
70320;SDS011;61127;55.826;37.046;2022-07-24T05:26:11;5.47;;;4.13;;
70320;SDS011;61127;55.826;37.046;2022-07-24T05:28:37;6.93;;;4.10;;
70320;SDS011;61127;55.826;37.046;2022-07-24T05:31:03;6.57;;;4.22;;
70320;SDS011;61127;55.826;37.046;2022-07-24T05:33:30;6.15;;;4.53;;
70320;SDS011;61127;55.826;37.046;2022-07-24T05:35:56;5.27;;;4.10;;
70320;SDS011;61127;55.826;37.046;2022-07-24T05:38:22;6.30;;;3.83;;
70320;SDS011;61127;55.826;37.046;2022-07-24T05:40:48;6.38;;;4.10;;
70320;SDS011;61127;55.826;37.046;2022-07-24T05:43:16;6.43;;;3.88;;
70320;SDS011;61127;55.826;37.046;2022-07-24T05:45:42;5.35;;;4.32;;
70320;SDS011;61127;55.826;37.046;2022-07-24T05:48:08;6.20;;;4.30;;
70320;SDS011;61127;55.826;37.046;2022-07-24T05:50:34;6.40;;;4.25;;
70320;SDS011;61127;55.826;37.046;2022-07-24T05:53:02;6.78;;;4.00;;
70320;SDS011;61127;55.826;37.046;2022-07-24T05:55:28;5.28;;;3.90;;
70320;SDS011;61127;55.826;37.046;2022-07-24T05:57:55;4.68;;;3.80;;
70320;SDS011;61127;55.826;37.046;2022-07-24T06:00:21;5.47;;;3.80;;
70320;SDS011;61127;55.826;37.046;2022-07-24T06:02:47;5.45;;;4.00;;
70320;SDS011;61127;55.826;37.046;2022-07-24T06:05:13;5.25;;;3.80;;
70320;SDS011;61127;55.826;37.046;2022-07-24T06:07:41;5.15;;;4.10;;
70320;SDS011;61127;55.826;37.046;2022-07-24T06:10:07;4.63;;;3.50;;
70320;SDS011;61127;55.826;37.046;2022-07-24T06:12:34;4.13;;;3.73;;
70320;SDS011;61127;55.826;37.046;2022-07-24T06:15:02;6.30;;;3.60;;
70320;SDS011;61127;55.826;37.046;2022-07-24T06:17:29;3.80;;;3.33;;
70320;SDS011;61127;55.826;37.046;2022-07-24T06:19:55;5.50;;;3.60;;
70320;SDS011;61127;55.826;37.046;2022-07-24T06:22:22;5.53;;;3.40;;
70320;SDS011;61127;55.826;37.046;2022-07-24T06:24:48;4.15;;;3.40;;
70320;SDS011;61127;55.826;37.046;2022-07-24T06:27:14;3.67;;;3.38;;
70320;SDS011;61127;55.826;37.046;2022-07-24T06:29:40;3.70;;;3.30;;
70320;SDS011;61127;55.826;37.046;2022-07-24T06:32:06;6.10;;;3.47;;
70320;SDS011;61127;55.826;37.046;2022-07-24T06:34:32;5.43;;;3.60;;
70320;SDS011;61127;55.826;37.046;2022-07-24T06:36:58;4.35;;;3.85;;
70320;SDS011;61127;55.826;37.046;2022-07-24T06:39:24;5.57;;;3.83;;
70320;SDS011;61127;55.826;37.046;2022-07-24T06:41:50;4.32;;;3.80;;
70320;SDS011;61127;55.826;37.046;2022-07-24T06:44:23;5.10;;;3.37;;
70320;SDS011;61127;55.826;37.046;2022-07-24T06:46:50;4.03;;;3.50;;
70320;SDS011;61127;55.826;37.046;2022-07-24T06:49:16;4.00;;;3.40;;
70320;SDS011;61127;55.826;37.046;2022-07-24T06:51:42;3.58;;;3.25;;
70320;SDS011;61127;55.826;37.046;2022-07-24T06:54:09;5.68;;;3.42;;
70320;SDS011;61127;55.826;37.046;2022-07-24T06:56:35;3.67;;;3.37;;
70320;SDS011;61127;55.826;37.046;2022-07-24T06:59:01;3.72;;;3.30;;
70320;SDS011;61127;55.826;37.046;2022-07-24T07:01:27;4.93;;;4.20;;
70320;SDS011;61127;55.826;37.046;2022-07-24T07:03:54;5.97;;;3.60;;
70320;SDS011;61127;55.826;37.046;2022-07-24T07:06:21;6.00;;;3.80;;
70320;SDS011;61127;55.826;37.046;2022-07-24T07:08:47;5.03;;;3.40;;
70320;SDS011;61127;55.826;37.046;2022-07-24T07:11:13;5.90;;;3.65;;
70320;SDS011;61127;55.826;37.046;2022-07-24T07:13:39;3.90;;;3.40;;
70320;SDS011;61127;55.826;37.046;2022-07-24T07:16:05;6.53;;;3.60;;
70320;SDS011;61127;55.826;37.046;2022-07-24T07:18:31;4.75;;;3.08;;
70320;SDS011;61127;55.826;37.046;2022-07-24T07:20:57;7.32;;;3.40;;
70320;SDS011;61127;55.826;37.046;2022-07-24T07:23:23;4.30;;;3.00;;
70320;SDS011;61127;55.826;37.046;2022-07-24T07:25:53;5.20;;;2.78;;
70320;SDS011;61127;55.826;37.046;2022-07-24T07:28:20;3.17;;;2.50;;
70320;SDS011;61127;55.826;37.046;2022-07-24T07:30:46;3.40;;;2.80;;
70320;SDS011;61127;55.826;37.046;2022-07-24T07:33:13;3.20;;;2.90;;
70320;SDS011;61127;55.826;37.046;2022-07-24T07:35:39;3.17;;;2.88;;
70320;SDS011;61127;55.826;37.046;2022-07-24T07:38:05;2.80;;;2.60;;
70320;SDS011;61127;55.826;37.046;2022-07-24T07:40:31;2.77;;;2.53;;
70320;SDS011;61127;55.826;37.046;2022-07-24T07:42:58;2.90;;;2.70;;
70320;SDS011;61127;55.826;37.046;2022-07-24T07:45:25;3.50;;;2.85;;
70320;SDS011;61127;55.826;37.046;2022-07-24T07:47:51;3.05;;;2.80;;
70320;SDS011;61127;55.826;37.046;2022-07-24T07:50:17;3.97;;;2.78;;
70320;SDS011;61127;55.826;37.046;2022-07-24T07:52:44;4.10;;;2.73;;
70320;SDS011;61127;55.826;37.046;2022-07-24T07:55:11;3.45;;;2.90;;
70320;SDS011;61127;55.826;37.046;2022-07-24T07:57:44;4.32;;;2.95;;
70320;SDS011;61127;55.826;37.046;2022-07-24T08:00:13;3.50;;;3.00;;
70320;SDS011;61127;55.826;37.046;2022-07-24T08:02:45;3.80;;;2.78;;
70320;SDS011;61127;55.826;37.046;2022-07-24T08:05:12;4.07;;;2.80;;
70320;SDS011;61127;55.826;37.046;2022-07-24T08:07:41;3.10;;;2.80;;
70320;SDS011;61127;55.826;37.046;2022-07-24T08:10:08;4.15;;;2.90;;
70320;SDS011;61127;55.826;37.046;2022-07-24T08:12:42;6.38;;;2.90;;
70320;SDS011;61127;55.826;37.046;2022-07-24T08:15:15;6.18;;;2.70;;
70320;SDS011;61127;55.826;37.046;2022-07-24T08:17:56;4.30;;;2.90;;
70320;SDS011;61127;55.826;37.046;2022-07-24T08:20:48;3.80;;;3.30;;
70320;SDS011;61127;55.826;37.046;2022-07-24T08:23:24;4.35;;;3.13;;
70320;SDS011;61127;55.826;37.046;2022-07-24T08:25:51;4.60;;;3.20;;
70320;SDS011;61127;55.826;37.046;2022-07-24T08:28:17;4.10;;;3.50;;
70320;SDS011;61127;55.826;37.046;2022-07-24T08:30:47;4.57;;;3.30;;
70320;SDS011;61127;55.826;37.046;2022-07-24T08:33:13;4.68;;;3.40;;
70320;SDS011;61127;55.826;37.046;2022-07-24T08:35:39;3.78;;;3.00;;
70320;SDS011;61127;55.826;37.046;2022-07-24T08:38:05;5.65;;;2.97;;
70320;SDS011;61127;55.826;37.046;2022-07-24T08:40:39;3.67;;;3.20;;
70320;SDS011;61127;55.826;37.046;2022-07-24T08:43:06;4.40;;;2.97;;
70320;SDS011;61127;55.826;37.046;2022-07-24T08:45:35;3.42;;;3.13;;
70320;SDS011;61127;55.826;37.046;2022-07-24T08:48:05;3.97;;;3.10;;
70320;SDS011;61127;55.826;37.046;2022-07-24T08:50:33;3.22;;;2.85;;
70320;SDS011;61127;55.826;37.046;2022-07-24T08:53:01;4.57;;;2.90;;
70320;SDS011;61127;55.826;37.046;2022-07-24T08:55:29;5.43;;;3.38;;
70320;SDS011;61127;55.826;37.046;2022-07-24T08:57:59;5.20;;;3.40;;
70320;SDS011;61127;55.826;37.046;2022-07-24T09:00:27;4.13;;;3.42;;
70320;SDS011;61127;55.826;37.046;2022-07-24T09:02:54;5.35;;;3.50;;
70320;SDS011;61127;55.826;37.046;2022-07-24T09:05:20;5.83;;;3.50;;
70320;SDS011;61127;55.826;37.046;2022-07-24T09:07:46;3.72;;;3.33;;
70320;SDS011;61127;55.826;37.046;2022-07-24T09:10:14;3.92;;;2.97;;
70320;SDS011;61127;55.826;37.046;2022-07-24T09:12:45;2.92;;;2.72;;
70320;SDS011;61127;55.826;37.046;2022-07-24T09:17:55;3.77;;;2.80;;
70320;SDS011;61127;55.826;37.046;2022-07-24T09:20:31;3.50;;;2.90;;
70320;SDS011;61127;55.826;37.046;2022-07-24T09:23:05;5.00;;;3.00;;
70320;SDS011;61127;55.826;37.046;2022-07-24T09:35:41;3.22;;;2.78;;
70320;SDS011;61127;55.826;37.046;2022-07-24T09:38:08;3.50;;;3.20;;
70320;SDS011;61127;55.826;37.046;2022-07-24T09:40:40;3.33;;;2.75;;
70320;SDS011;61127;55.826;37.046;2022-07-24T09:43:15;2.78;;;2.50;;
70320;SDS011;61127;55.826;37.046;2022-07-24T09:46:02;6.30;;;3.20;;
70320;SDS011;61127;55.826;37.046;2022-07-24T09:48:34;4.82;;;3.20;;
70320;SDS011;61127;55.826;37.046;2022-07-24T09:51:17;3.90;;;3.40;;
70320;SDS011;61127;55.826;37.046;2022-07-24T09:53:43;3.90;;;3.60;;
70320;SDS011;61127;55.826;37.046;2022-07-24T09:56:13;3.63;;;3.33;;
70320;SDS011;61127;55.826;37.046;2022-07-24T09:58:47;5.73;;;3.70;;
70320;SDS011;61127;55.826;37.046;2022-07-24T10:01:21;4.53;;;3.50;;
70320;SDS011;61127;55.826;37.046;2022-07-24T10:03:52;4.72;;;3.40;;
70320;SDS011;61127;55.826;37.046;2022-07-24T10:06:21;5.35;;;3.70;;
70320;SDS011;61127;55.826;37.046;2022-07-24T10:08:51;4.47;;;4.07;;
70320;SDS011;61127;55.826;37.046;2022-07-24T10:14:05;3.85;;;3.55;;
70320;SDS011;61127;55.826;37.046;2022-07-24T10:16:32;4.13;;;3.60;;
70320;SDS011;61127;55.826;37.046;2022-07-24T10:19:02;4.28;;;3.83;;
70320;SDS011;61127;55.826;37.046;2022-07-24T10:21:36;4.03;;;3.72;;
70320;SDS011;61127;55.826;37.046;2022-07-24T10:26:48;3.20;;;2.90;;
70320;SDS011;61127;55.826;37.046;2022-07-24T10:29:17;4.18;;;2.85;;
70320;SDS011;61127;55.826;37.046;2022-07-24T10:31:45;3.50;;;3.20;;
70320;SDS011;61127;55.826;37.046;2022-07-24T10:39:47;5.35;;;3.30;;
70320;SDS011;61127;55.826;37.046;2022-07-24T10:42:31;3.88;;;3.58;;
70320;SDS011;61127;55.826;37.046;2022-07-24T10:45:16;12.68;;;6.80;;
70320;SDS011;61127;55.826;37.046;2022-07-24T10:47:45;5.10;;;3.85;;
70320;SDS011;61127;55.826;37.046;2022-07-24T10:50:11;5.53;;;4.70;;
70320;SDS011;61127;55.826;37.046;2022-07-24T10:52:40;5.22;;;4.72;;
70320;SDS011;61127;55.826;37.046;2022-07-24T11:00:49;4.35;;;3.95;;
70320;SDS011;61127;55.826;37.046;2022-07-24T11:03:34;5.00;;;4.43;;
70320;SDS011;61127;55.826;37.046;2022-07-24T11:06:10;6.97;;;4.50;;
70320;SDS011;61127;55.826;37.046;2022-07-24T11:08:42;4.07;;;3.70;;
70320;SDS011;61127;55.826;37.046;2022-07-24T11:11:19;4.43;;;4.10;;
70320;SDS011;61127;55.826;37.046;2022-07-24T11:13:47;4.93;;;4.53;;
70320;SDS011;61127;55.826;37.046;2022-07-24T11:16:22;7.70;;;4.30;;
70320;SDS011;61127;55.826;37.046;2022-07-24T11:19:23;7.05;;;5.35;;
70320;SDS011;61127;55.826;37.046;2022-07-24T11:21:43;5.25;;;4.78;;
70320;SDS011;61127;55.826;37.046;2022-07-24T11:26:52;6.35;;;5.75;;
70320;SDS011;61127;55.826;37.046;2022-07-24T11:29:23;5.50;;;5.03;;
70320;SDS011;61127;55.826;37.046;2022-07-24T11:31:59;6.80;;;5.20;;
70320;SDS011;61127;55.826;37.046;2022-07-24T11:34:28;5.65;;;5.20;;
70320;SDS011;61127;55.826;37.046;2022-07-24T11:36:55;5.50;;;5.00;;
70320;SDS011;61127;55.826;37.046;2022-07-24T11:39:33;10.65;;;6.72;;
70320;SDS011;61127;55.826;37.046;2022-07-24T11:42:05;6.80;;;6.20;;
70320;SDS011;61127;55.826;37.046;2022-07-24T11:44:44;6.75;;;6.10;;
70320;SDS011;61127;55.826;37.046;2022-07-24T11:47:14;6.93;;;6.30;;
70320;SDS011;61127;55.826;37.046;2022-07-24T11:52:12;6.65;;;6.05;;
70320;SDS011;61127;55.826;37.046;2022-07-24T11:54:44;6.30;;;5.70;;
70320;SDS011;61127;55.826;37.046;2022-07-24T11:57:46;7.07;;;6.45;;
70320;SDS011;61127;55.826;37.046;2022-07-24T12:00:11;6.57;;;6.07;;
70320;SDS011;61127;55.826;37.046;2022-07-24T12:02:44;6.72;;;6.13;;
70320;SDS011;61127;55.826;37.046;2022-07-24T12:05:12;7.45;;;6.80;;
70320;SDS011;61127;55.826;37.046;2022-07-24T12:07:38;7.13;;;6.23;;
70320;SDS011;61127;55.826;37.046;2022-07-24T12:10:04;6.65;;;6.10;;
70320;SDS011;61127;55.826;37.046;2022-07-24T12:12:35;7.03;;;6.32;;
70320;SDS011;61127;55.826;37.046;2022-07-24T12:15:06;6.40;;;5.90;;
70320;SDS011;61127;55.826;37.046;2022-07-24T12:17:35;7.70;;;5.82;;
70320;SDS011;61127;55.826;37.046;2022-07-24T12:20:21;6.20;;;5.70;;
70320;SDS011;61127;55.826;37.046;2022-07-24T12:22:50;6.32;;;5.70;;
70320;SDS011;61127;55.826;37.046;2022-07-24T12:25:17;8.35;;;6.50;;
70320;SDS011;61127;55.826;37.046;2022-07-24T12:27:44;7.43;;;6.82;;
70320;SDS011;61127;55.826;37.046;2022-07-24T12:30:20;7.30;;;6.60;;
70320;SDS011;61127;55.826;37.046;2022-07-24T12:32:54;7.00;;;6.50;;
70320;SDS011;61127;55.826;37.046;2022-07-24T12:35:21;9.57;;;6.97;;
70320;SDS011;61127;55.826;37.046;2022-07-24T12:37:49;7.60;;;7.03;;
70320;SDS011;61127;55.826;37.046;2022-07-24T12:40:25;6.00;;;5.60;;
70320;SDS011;61127;55.826;37.046;2022-07-24T12:43:08;6.15;;;5.75;;
70320;SDS011;61127;55.826;37.046;2022-07-24T12:45:36;6.57;;;6.05;;
70320;SDS011;61127;55.826;37.046;2022-07-24T12:48:16;6.25;;;5.72;;
70320;SDS011;61127;55.826;37.046;2022-07-24T12:51:07;6.10;;;5.60;;
70320;SDS011;61127;55.826;37.046;2022-07-24T12:53:36;6.13;;;5.47;;
70320;SDS011;61127;55.826;37.046;2022-07-24T12:56:12;6.30;;;5.70;;
70320;SDS011;61127;55.826;37.046;2022-07-24T13:01:23;5.90;;;5.40;;
70320;SDS011;61127;55.826;37.046;2022-07-24T13:03:56;5.97;;;5.57;;
70320;SDS011;61127;55.826;37.046;2022-07-24T13:09:02;8.02;;;4.80;;
70320;SDS011;61127;55.826;37.046;2022-07-24T13:11:30;5.25;;;4.45;;
70320;SDS011;61127;55.826;37.046;2022-07-24T13:13:56;6.68;;;4.95;;
70320;SDS011;61127;55.826;37.046;2022-07-24T13:16:22;5.25;;;4.78;;
70320;SDS011;61127;55.826;37.046;2022-07-24T13:18:53;5.55;;;5.00;;
70320;SDS011;61127;55.826;37.046;2022-07-24T13:21:19;5.37;;;4.87;;
70320;SDS011;61127;55.826;37.046;2022-07-24T13:23:45;5.60;;;5.10;;
70320;SDS011;61127;55.826;37.046;2022-07-24T13:26:11;5.20;;;4.80;;
70320;SDS011;61127;55.826;37.046;2022-07-24T13:28:38;5.15;;;4.70;;
70320;SDS011;61127;55.826;37.046;2022-07-24T13:31:04;6.47;;;4.78;;
70320;SDS011;61127;55.826;37.046;2022-07-24T13:33:30;4.97;;;4.57;;
70320;SDS011;61127;55.826;37.046;2022-07-24T13:35:56;8.27;;;4.70;;
70320;SDS011;61127;55.826;37.046;2022-07-24T13:38:22;7.55;;;5.38;;
70320;SDS011;61127;55.826;37.046;2022-07-24T13:40:49;5.38;;;4.53;;
70320;SDS011;61127;55.826;37.046;2022-07-24T13:43:18;5.68;;;3.97;;
70320;SDS011;61127;55.826;37.046;2022-07-24T13:45:44;6.45;;;4.30;;
70320;SDS011;61127;55.826;37.046;2022-07-24T13:48:18;8.55;;;4.20;;
70320;SDS011;61127;55.826;37.046;2022-07-24T13:51:12;5.75;;;3.70;;
70320;SDS011;61127;55.826;37.046;2022-07-24T13:53:39;5.28;;;4.05;;
70320;SDS011;61127;55.826;37.046;2022-07-24T13:56:09;4.05;;;3.70;;
70320;SDS011;61127;55.826;37.046;2022-07-24T13:58:56;3.60;;;3.30;;
70320;SDS011;61127;55.826;37.046;2022-07-24T14:01:23;4.97;;;3.58;;
70320;SDS011;61127;55.826;37.046;2022-07-24T14:03:49;12.20;;;3.78;;
70320;SDS011;61127;55.826;37.046;2022-07-24T14:06:15;6.43;;;3.10;;
70320;SDS011;61127;55.826;37.046;2022-07-24T14:08:42;3.50;;;3.20;;
70320;SDS011;61127;55.826;37.046;2022-07-24T14:11:08;4.37;;;2.87;;
70320;SDS011;61127;55.826;37.046;2022-07-24T14:13:35;6.70;;;3.38;;
70320;SDS011;61127;55.826;37.046;2022-07-24T14:16:01;4.88;;;3.20;;
70320;SDS011;61127;55.826;37.046;2022-07-24T14:18:29;4.03;;;2.97;;
70320;SDS011;61127;55.826;37.046;2022-07-24T14:20:55;3.78;;;3.00;;
70320;SDS011;61127;55.826;37.046;2022-07-24T14:23:22;8.37;;;3.20;;
70320;SDS011;61127;55.826;37.046;2022-07-24T14:25:48;3.00;;;2.70;;
70320;SDS011;61127;55.826;37.046;2022-07-24T14:28:15;6.03;;;2.90;;
70320;SDS011;61127;55.826;37.046;2022-07-24T14:30:41;3.20;;;2.78;;
70320;SDS011;61127;55.826;37.046;2022-07-24T14:33:09;3.22;;;2.70;;
70320;SDS011;61127;55.826;37.046;2022-07-24T14:35:35;4.97;;;2.53;;
70320;SDS011;61127;55.826;37.046;2022-07-24T14:38:01;3.50;;;2.83;;
70320;SDS011;61127;55.826;37.046;2022-07-24T14:40:27;4.30;;;2.78;;
70320;SDS011;61127;55.826;37.046;2022-07-24T14:42:53;6.30;;;2.90;;
70320;SDS011;61127;55.826;37.046;2022-07-24T14:45:20;4.35;;;2.60;;
70320;SDS011;61127;55.826;37.046;2022-07-24T14:47:47;3.83;;;2.70;;
70320;SDS011;61127;55.826;37.046;2022-07-24T14:50:14;4.65;;;2.75;;
70320;SDS011;61127;55.826;37.046;2022-07-24T14:52:40;3.67;;;2.85;;
70320;SDS011;61127;55.826;37.046;2022-07-24T14:55:07;6.60;;;2.70;;
70320;SDS011;61127;55.826;37.046;2022-07-24T14:57:33;3.30;;;3.00;;
70320;SDS011;61127;55.826;37.046;2022-07-24T14:59:59;3.60;;;2.73;;
70320;SDS011;61127;55.826;37.046;2022-07-24T15:02:32;5.78;;;3.08;;
70320;SDS011;61127;55.826;37.046;2022-07-24T15:04:59;4.38;;;2.80;;
70320;SDS011;61127;55.826;37.046;2022-07-24T15:07:25;6.85;;;2.70;;
70320;SDS011;61127;55.826;37.046;2022-07-24T15:09:51;6.70;;;3.13;;
70320;SDS011;61127;55.826;37.046;2022-07-24T15:12:17;7.83;;;3.00;;
70320;SDS011;61127;55.826;37.046;2022-07-24T15:14:43;5.97;;;3.00;;
70320;SDS011;61127;55.826;37.046;2022-07-24T15:17:09;4.78;;;3.00;;